Time;durP1;ratioP1;P1;durP2;ratioP2;P2;SDS_P1;SDS_P2;PMS_P1;PMS_P2;Temp;Humidity;BMP_temperature;BMP_pressure;BME280_temperature;BME280_humidity;BME280_pressure;Samples;Min_cycle;Max_cycle;Signal;HPM_P1;HPM_P2
2022/02/25 00:01:42;;;;;;;7.97;1.88;;;;;;;0.76;100.00;99448.72;7390910;19;20193;-54
2022/02/25 00:04:14;;;;;;;3.35;1.30;;;;;;;0.77;100.00;99457.22;7386465;19;20189;-55
2022/02/25 00:06:44;;;;;;;2.10;1.23;;;;;;;0.75;100.00;99462.22;7384399;19;20205;-55
2022/02/25 00:09:13;;;;;;;6.50;1.92;;;;;;;0.75;100.00;99471.47;7388224;19;20194;-53
2022/02/25 00:11:45;;;;;;;15.95;1.70;;;;;;;0.76;100.00;99468.16;7385868;19;20194;-52
2022/02/25 00:14:15;;;;;;;9.73;1.20;;;;;;;0.79;100.00;99481.06;7388737;19;20161;-56
2022/02/25 00:16:46;;;;;;;12.98;1.63;;;;;;;0.80;100.00;99500.56;7384762;19;20633;-53
2022/02/25 00:19:18;;;;;;;6.82;1.58;;;;;;;0.84;100.00;99492.38;7389740;19;20137;-51
2022/02/25 00:21:48;;;;;;;6.65;2.15;;;;;;;0.86;100.00;99495.88;7386151;19;20194;-50
2022/02/25 00:24:17;;;;;;;9.63;1.50;;;;;;;0.86;100.00;99490.78;7389034;19;20155;-56
2022/02/25 00:26:48;;;;;;;7.93;2.40;;;;;;;0.87;100.00;99492.53;7386140;19;20190;-52
2022/02/25 00:29:18;;;;;;;4.78;1.67;;;;;;;0.89;100.00;99498.59;7389724;19;20401;-54
2022/02/25 00:31:50;;;;;;;7.57;2.10;;;;;;;0.87;100.00;99506.91;7387252;19;20182;-50
2022/02/25 00:34:22;;;;;;;3.45;1.60;;;;;;;0.89;100.00;99502.81;7389838;19;20165;-54
2022/02/25 00:36:51;;;;;;;4.55;1.33;;;;;;;0.87;100.00;99512.84;7387613;19;20516;-49
2022/02/25 00:39:21;;;;;;;5.93;1.38;;;;;;;0.86;100.00;99518.72;7394309;19;20133;-52
2022/02/25 00:41:52;;;;;;;3.97;2.10;;;;;;;0.88;100.00;99516.28;7387523;19;20198;-50
2022/02/25 00:44:22;;;;;;;6.47;1.50;;;;;;;0.86;100.00;99526.34;7389850;19;20162;-54
2022/02/25 00:46:54;;;;;;;4.95;1.60;;;;;;;0.86;100.00;99526.34;7386429;19;20225;-55
2022/02/25 00:49:26;;;;;;;5.53;1.98;;;;;;;0.88;100.00;99529.84;7389732;19;20138;-53
2022/02/25 00:51:56;;;;;;;5.15;0.90;;;;;;;0.90;100.00;99537.56;7378953;19;20233;-50
2022/02/25 00:54:25;;;;;;;6.47;2.03;;;;;;;0.86;100.00;99541.59;7389908;19;20159;-53
2022/02/25 00:56:56;;;;;;;11.38;2.17;;;;;;;0.86;100.00;99546.66;7387603;19;20606;-49
2022/02/25 00:59:26;;;;;;;4.72;1.70;;;;;;;0.84;100.00;99547.34;7390771;19;20127;-51
2022/02/25 01:01:57;;;;;;;6.70;1.65;;;;;;;0.82;100.00;99541.31;7387260;19;20201;-51
2022/02/25 01:04:30;;;;;;;8.82;2.80;;;;;;;0.82;100.00;99547.25;7389479;19;20158;-51
2022/02/25 01:06:59;;;;;;;9.07;1.85;;;;;;;0.81;100.00;99542.97;7388606;19;20200;-51
2022/02/25 01:09:29;;;;;;;9.30;2.15;;;;;;;0.80;100.00;99548.81;7388975;19;20755;-50
2022/02/25 01:12:01;;;;;;;11.93;3.45;;;;;;;0.78;100.00;99558.88;7388877;19;20210;-51
2022/02/25 01:14:30;;;;;;;4.90;1.90;;;;;;;0.80;100.00;99564.06;7390383;19;20175;-52
2022/02/25 01:17:02;;;;;;;8.50;1.73;;;;;;;0.82;100.00;99575.19;7388948;19;20187;-54
2022/02/25 01:19:34;;;;;;;11.98;2.20;;;;;;;0.86;100.00;99587.31;7391277;19;20131;-54
2022/02/25 01:22:04;;;;;;;7.63;1.83;;;;;;;0.89;100.00;99587.50;7388968;19;20197;-50
2022/02/25 01:24:34;;;;;;;10.68;2.10;;;;;;;0.92;100.00;99574.97;7390095;19;20628;-54
2022/02/25 01:27:03;;;;;;;10.40;1.35;;;;;;;0.91;100.00;99560.53;7387545;19;20194;-49
2022/02/25 01:29:33;;;;;;;4.55;1.20;;;;;;;0.91;100.00;99569.81;7394113;19;20127;-51
2022/02/25 01:32:02;;;;;;;11.65;2.20;;;;;;;0.93;100.00;99570.78;7398035;19;20194;-51
2022/02/25 01:34:35;;;;;;;22.02;2.30;;;;;;;0.94;100.00;99575.94;7396613;19;20159;-49
2022/02/25 01:37:05;;;;;;;5.35;1.50;;;;;;;0.92;100.00;99577.53;7392836;19;20196;-53
2022/02/25 01:39:35;;;;;;;5.55;1.60;;;;;;;0.89;100.00;99572.25;7397623;19;20137;-52
2022/02/25 01:42:07;;;;;;;5.57;1.35;;;;;;;0.91;100.00;99574.88;7394807;19;20193;-54
2022/02/25 01:44:41;;;;;;;8.23;2.08;;;;;;;0.91;100.00;99579.97;7396324;19;20515;-54
2022/02/25 01:47:11;;;;;;;8.77;2.13;;;;;;;0.90;100.00;99588.38;7395299;19;20194;-55
2022/02/25 01:49:44;;;;;;;4.47;0.90;;;;;;;0.87;100.00;99586.50;7394599;19;20509;-49
2022/02/25 01:52:16;;;;;;;3.28;1.63;;;;;;;0.89;100.00;99596.78;7396285;19;20200;-53
2022/02/25 01:54:48;;;;;;;14.02;2.20;;;;;;;0.89;100.00;99592.59;7395666;19;20170;-51
2022/02/25 01:57:18;;;;;;;7.72;1.50;;;;;;;0.87;100.00;99604.28;7388841;19;20190;-50
2022/02/25 01:59:50;;;;;;;14.63;2.10;;;;;;;0.88;100.00;99611.13;7397248;19;20127;-52
2022/02/25 02:02:20;;;;;;;14.02;2.40;;;;;;;0.88;100.00;99588.25;7394844;19;20217;-50
2022/02/25 02:04:54;;;;;;;3.05;1.20;;;;;;;0.87;100.00;99623.75;7395030;19;20171;-53
2022/02/25 02:07:24;;;;;;;6.05;1.15;;;;;;;0.86;100.00;99614.38;7387041;19;20193;-50
2022/02/25 02:09:53;;;;;;;9.30;2.75;;;;;;;0.83;100.00;99615.06;7394702;19;20133;-51
2022/02/25 02:12:24;;;;;;;5.07;1.50;;;;;;;0.83;100.00;99594.75;7394006;19;20190;-50
2022/02/25 02:14:54;;;;;;;2.63;0.85;;;;;;;0.81;100.00;99591.22;7394983;19;20166;-52
2022/02/25 02:17:24;;;;;;;7.32;1.70;;;;;;;0.81;100.00;99601.38;7393428;19;20191;-52
2022/02/25 02:20:00;;;;;;;5.53;1.55;;;;;;;0.84;100.00;99599.03;7396315;19;20613;-61
2022/02/25 02:22:32;;;;;;;6.13;1.42;;;;;;;0.85;100.00;99605.88;7394402;19;20527;-51
2022/02/25 02:25:02;;;;;;;14.85;1.73;;;;;;;0.88;100.00;99608.59;7394856;19;20158;-51
2022/02/25 02:30:15;;;;;;;24.45;2.10;;;;;;;0.94;100.00;99601.34;7393018;19;20131;-52
2022/02/25 02:32:45;;;;;;;10.65;1.85;;;;;;;0.92;100.00;99592.75;7394856;19;20192;-51
2022/02/25 02:35:14;;;;;;;10.90;1.90;;;;;;;0.93;100.00;99603.81;7393241;19;20162;-55
2022/02/25 02:37:48;;;;;;;6.28;1.70;;;;;;;0.94;100.00;99593.72;7393857;19;20194;-52
2022/02/25 02:40:17;;;;;;;13.20;1.35;;;;;;;0.93;100.00;99589.44;7395501;19;20131;-49
2022/02/25 02:42:47;;;;;;;11.07;2.00;;;;;;;0.91;100.00;99591.00;7393381;19;20542;-55
2022/02/25 02:45:17;;;;;;;4.85;1.20;;;;;;;0.90;100.00;99598.53;7394060;19;20169;-54
2022/02/25 02:47:47;;;;;;;4.88;1.27;;;;;;;0.88;100.00;99606.03;7392617;19;20190;-51
2022/02/25 02:50:16;;;;;;;10.65;2.00;;;;;;;0.91;100.00;99607.91;7393349;19;20127;-52
2022/02/25 02:52:49;;;;;;;5.10;2.22;;;;;;;0.99;100.00;99613.47;7393025;19;20676;-53
2022/02/25 02:55:18;;;;;;;3.40;1.58;;;;;;;1.00;100.00;99605.06;7393462;19;20630;-52
2022/02/25 02:57:48;;;;;;;10.27;1.63;;;;;;;1.00;100.00;99603.41;7393055;19;20190;-51
2022/02/25 03:00:17;;;;;;;10.35;1.40;;;;;;;1.05;100.00;99606.22;7395380;19;20127;-50
2022/02/25 03:02:47;;;;;;;8.77;1.30;;;;;;;1.04;100.00;99589.22;7391703;19;20190;-53
2022/02/25 03:05:18;;;;;;;10.35;1.67;;;;;;;1.06;100.00;99615.59;7393365;19;20163;-51
2022/02/25 03:07:51;;;;;;;15.23;1.90;;;;;;;1.06;100.00;99611.41;7392772;19;20194;-54
2022/02/25 03:10:21;;;;;;;12.02;2.47;;;;;;;1.05;100.00;99607.13;7393592;19;20141;-49
2022/02/25 03:12:51;;;;;;;4.35;1.52;;;;;;;1.03;100.00;99623.03;7391911;19;20201;-53
2022/02/25 03:15:20;;;;;;;12.88;3.35;;;;;;;1.02;100.00;99608.59;7392991;19;20169;-54
2022/02/25 03:17:50;;;;;;;7.38;1.15;;;;;;;1.00;100.00;99616.09;7392453;19;20182;-51
2022/02/25 03:20:19;;;;;;;8.10;1.65;;;;;;;0.98;100.00;99619.34;7394637;19;20127;-52
2022/02/25 03:22:51;;;;;;;5.35;1.83;;;;;;;0.94;100.00;99624.22;7391989;19;20214;-48
2022/02/25 03:25:22;;;;;;;4.72;1.00;;;;;;;0.93;100.00;99630.06;7394483;19;20657;-49
2022/02/25 03:27:51;;;;;;;8.15;2.15;;;;;;;0.93;100.00;99630.06;7390336;19;20194;-49
2022/02/25 03:30:21;;;;;;;8.75;0.95;;;;;;;0.94;100.00;99634.38;7392616;19;20473;-52
2022/02/25 03:32:52;;;;;;;4.93;1.80;;;;;;;0.94;100.00;99625.88;7389473;19;20186;-53
2022/02/25 03:35:22;;;;;;;6.13;1.67;;;;;;;0.94;100.00;99626.75;7388677;19;20177;-49
2022/02/25 03:37:54;;;;;;;4.45;1.50;;;;;;;0.95;100.00;99635.25;7387688;19;20200;-51
2022/02/25 03:40:24;;;;;;;13.73;2.13;;;;;;;0.98;100.00;99638.00;7390058;19;20127;-51
2022/02/25 03:42:53;;;;;;;21.70;1.83;;;;;;;0.99;100.00;99633.78;7387066;19;20193;-54
2022/02/25 03:45:23;;;;;;;5.75;1.45;;;;;;;1.00;100.00;99630.47;7388915;19;20159;-52
2022/02/25 03:47:52;;;;;;;4.70;1.00;;;;;;;1.03;100.00;99640.81;7391082;19;20521;-52
2022/02/25 03:50:22;;;;;;;2.30;0.70;;;;;;;1.02;100.00;99644.16;7392389;19;20134;-53
2022/02/25 03:52:54;;;;;;;10.38;1.90;;;;;;;1.05;100.00;99642.69;7390971;19;20525;-53
2022/02/25 03:55:23;;;;;;;7.70;2.30;;;;;;;1.07;100.00;99635.13;7391924;19;20158;-51
2022/02/25 03:57:53;;;;;;;12.02;1.95;;;;;;;1.06;100.00;99641.00;7393585;19;20197;-53
2022/02/25 04:00:25;;;;;;;3.85;1.15;;;;;;;1.07;100.00;99640.22;7393720;19;20133;-52
2022/02/25 04:02:54;;;;;;;3.65;1.25;;;;;;;1.10;100.00;99632.78;7389748;19;20190;-49
2022/02/25 04:05:27;;;;;;;3.47;1.20;;;;;;;1.13;100.00;99643.13;7391871;19;20185;-52
2022/02/25 04:07:59;;;;;;;7.45;1.88;;;;;;;1.14;100.00;99650.00;7389920;19;20257;-50
2022/02/25 04:10:28;;;;;;;14.53;2.07;;;;;;;1.15;100.00;99636.50;7392457;19;20202;-54
2022/02/25 04:12:58;;;;;;;5.10;1.30;;;;;;;1.13;100.00;99645.66;7390607;19;20774;-52
2022/02/25 04:15:29;;;;;;;5.53;1.60;;;;;;;1.09;100.00;99643.75;7393382;19;20139;-53
2022/02/25 04:17:58;;;;;;;4.20;1.90;;;;;;;1.06;100.00;99649.50;7389493;19;20190;-51
2022/02/25 04:20:30;;;;;;;4.90;1.50;;;;;;;1.05;100.00;99644.31;7393203;19;20150;-48
2022/02/25 04:23:02;;;;;;;13.52;2.08;;;;;;;1.04;100.00;99640.03;7390293;19;20190;-50
2022/02/25 04:25:32;;;;;;;4.53;1.15;;;;;;;1.00;100.00;99641.50;7393198;19;20130;-49
2022/02/25 04:28:02;;;;;;;12.50;1.67;;;;;;;0.98;100.00;99642.19;7389123;19;20197;-49
2022/02/25 04:30:33;;;;;;;7.68;1.95;;;;;;;1.00;100.00;99644.06;7395635;19;20139;-50
2022/02/25 04:33:03;;;;;;;5.60;1.20;;;;;;;0.98;100.00;99638.00;7390095;19;20190;-54
2022/02/25 04:35:35;;;;;;;10.07;1.52;;;;;;;0.98;100.00;99643.09;7393103;19;20135;-50
2022/02/25 04:38:07;;;;;;;4.28;0.95;;;;;;;1.01;100.00;99642.38;7389323;19;20202;-53
2022/02/25 04:40:38;;;;;;;6.88;1.42;;;;;;;1.02;100.00;99641.63;7392804;19;20123;-54
2022/02/25 04:43:08;;;;;;;7.82;1.73;;;;;;;1.04;100.00;99645.13;7389848;19;20193;-50
2022/02/25 04:45:38;;;;;;;6.43;1.58;;;;;;;1.01;100.00;99650.00;7392640;19;20133;-53
2022/02/25 04:48:08;;;;;;;6.32;1.52;;;;;;;1.01;100.00;99660.16;7385777;19;20190;-52
2022/02/25 04:50:39;;;;;;;2.70;1.23;;;;;;;1.02;100.00;99644.16;7391067;19;20199;-49
2022/02/25 04:53:11;;;;;;;6.33;2.97;;;;;;;1.05;100.00;99646.88;7388938;19;20289;-50
2022/02/25 04:55:41;;;;;;;6.55;1.60;;;;;;;1.03;100.00;99645.91;7392378;19;20376;-50
2022/02/25 04:58:10;;;;;;;8.13;1.85;;;;;;;1.05;100.00;99645.22;7388700;19;20189;-52
2022/02/25 05:00:41;;;;;;;5.00;1.25;;;;;;;1.06;100.00;99661.31;7392170;19;20123;-49
2022/02/25 05:03:11;;;;;;;6.85;1.63;;;;;;;1.05;100.00;99659.56;7394791;19;20190;-48
2022/02/25 05:05:42;;;;;;;3.40;1.75;;;;;;;1.05;100.00;99654.50;7400077;19;20127;-49
2022/02/25 05:08:15;;;;;;;4.22;1.20;;;;;;;1.02;100.00;99651.78;7394847;19;20198;-53
2022/02/25 05:10:44;;;;;;;3.60;0.88;;;;;;;1.00;100.00;99646.59;7397946;19;20123;-49
2022/02/25 05:13:14;;;;;;;3.55;1.52;;;;;;;0.98;100.00;99642.19;7399273;19;20656;-49
2022/02/25 05:21:09;;;;;;;8.57;2.42;;;;;;;0.98;100.00;99638.00;7399122;19;20131;-50
2022/02/25 05:23:41;;;;;;;11.90;1.65;;;;;;;1.01;100.00;99648.34;7397402;19;20197;-49
2022/02/25 05:26:11;;;;;;;3.88;1.20;;;;;;;0.97;100.00;99651.47;7400413;19;20131;-56
2022/02/25 05:28:41;;;;;;;8.52;2.17;;;;;;;1.00;100.00;99663.47;7401781;19;20131;-49
2022/02/25 05:31:10;;;;;;;7.45;1.15;;;;;;;0.99;100.00;99685.47;7394381;19;20430;-56
2022/02/25 05:33:40;;;;;;;4.72;1.77;;;;;;;1.04;100.00;99695.94;7397289;19;20159;-52
2022/02/25 05:36:09;;;;;;;8.70;1.35;;;;;;;1.10;100.00;99720.84;7399029;19;20496;-52
2022/02/25 05:38:42;;;;;;;2.85;1.10;;;;;;;1.11;100.00;99746.34;7397324;19;20242;-50
2022/02/25 05:41:11;;;;;;;6.97;1.23;;;;;;;1.13;100.00;99746.44;7395479;19;20129;-53
2022/02/25 05:43:41;;;;;;;8.82;2.58;;;;;;;1.19;100.00;99744.31;7397149;19;20223;-49
2022/02/25 05:46:10;;;;;;;4.20;1.33;;;;;;;1.19;100.00;99755.31;7394707;19;20195;-56
2022/02/25 05:48:40;;;;;;;8.65;2.00;;;;;;;1.23;100.00;99753.00;7397469;19;20131;-53
2022/02/25 05:51:10;;;;;;;6.00;2.10;;;;;;;1.29;100.00;99763.53;7396106;19;20135;-49
2022/02/25 05:53:42;;;;;;;9.65;2.05;;;;;;;1.26;100.00;99786.22;7396549;19;20943;-51
2022/02/25 05:56:11;;;;;;;5.03;1.47;;;;;;;1.31;100.00;99773.03;7395098;19;20151;-52
2022/02/25 05:58:41;;;;;;;3.70;1.53;;;;;;;1.32;100.00;99787.50;7399404;19;20403;-54
2022/02/25 06:01:11;;;;;;;8.43;1.50;;;;;;;1.35;100.00;99791.91;7393747;19;20401;-55
2022/02/25 06:03:41;;;;;;;10.55;2.35;;;;;;;1.36;100.00;99801.28;7396023;19;20411;-50
2022/02/25 06:06:10;;;;;;;5.43;1.88;;;;;;;1.39;100.00;99814.16;7394647;19;20583;-59
2022/02/25 06:08:43;;;;;;;12.02;1.85;;;;;;;1.43;100.00;99816.13;7396619;19;20135;-54
2022/02/25 06:11:13;;;;;;;7.13;1.25;;;;;;;1.45;100.00;99818.78;7391184;19;20131;-49
2022/02/25 06:13:42;;;;;;;7.90;2.60;;;;;;;1.46;100.00;99836.69;7393621;19;20647;-48
2022/02/25 06:16:12;;;;;;;5.70;1.30;;;;;;;1.44;100.00;99837.38;7391768;19;20391;-52
2022/02/25 06:18:42;;;;;;;15.88;2.58;;;;;;;1.46;100.00;99841.75;7396061;19;20384;-51
2022/02/25 06:21:11;;;;;;;9.27;1.33;;;;;;;1.43;100.00;99851.72;7393455;19;20135;-51
2022/02/25 06:23:44;;;;;;;15.35;1.80;;;;;;;1.45;100.00;99865.41;7396083;19;20158;-48
2022/02/25 06:26:13;;;;;;;17.63;1.15;;;;;;;1.42;100.00;99862.69;7394441;19;20127;-52
2022/02/25 06:28:43;;;;;;;4.90;1.38;;;;;;;1.36;100.00;99862.28;7395644;19;20127;-50
2022/02/25 06:31:12;;;;;;;4.43;0.90;;;;;;;1.41;100.00;99863.47;7391143;19;20606;-50
2022/02/25 06:33:42;;;;;;;6.23;2.07;;;;;;;1.38;100.00;99867.47;7395137;19;20408;-48
2022/02/25 06:36:12;;;;;;;3.57;1.13;;;;;;;1.40;100.00;99864.25;7397910;19;20400;-52
2022/02/25 06:38:46;;;;;;;4.13;0.93;;;;;;;1.43;100.00;99871.19;7395262;19;20952;-51
2022/02/25 06:41:15;;;;;;;8.13;1.50;;;;;;;1.40;100.00;99886.25;7392857;19;20446;-52
2022/02/25 06:43:45;;;;;;;11.50;2.33;;;;;;;1.45;100.00;99875.56;7395017;19;20162;-51
2022/02/25 06:46:14;;;;;;;3.75;1.30;;;;;;;1.40;100.00;99882.03;7391774;19;20404;-48
2022/02/25 06:48:46;;;;;;;2.17;1.20;;;;;;;1.41;100.00;99882.91;7395543;19;20131;-51
2022/02/25 06:51:15;;;;;;;5.97;1.73;;;;;;;1.40;100.00;99882.03;7391795;19;20127;-50
2022/02/25 06:53:47;;;;;;;2.25;1.38;;;;;;;1.41;100.00;99883.81;7394864;19;20218;-51
2022/02/25 06:56:17;;;;;;;9.50;2.08;;;;;;;1.43;100.00;99907.66;7393343;19;20595;-50
2022/02/25 06:58:46;;;;;;;9.07;2.20;;;;;;;1.48;100.00;99920.66;7394697;19;20586;-49
2022/02/25 07:01:16;;;;;;;15.43;2.20;;;;;;;1.53;100.00;99923.53;7392975;19;20463;-51
2022/02/25 07:03:47;;;;;;;8.57;1.90;;;;;;;1.54;100.00;99928.69;7394529;19;20778;-50
2022/02/25 07:06:17;;;;;;;5.05;1.70;;;;;;;1.60;100.00;99936.72;7393027;19;20404;-51
2022/02/25 07:08:50;;;;;;;11.13;1.83;;;;;;;1.63;100.00;99951.28;7394139;19;20127;-48
2022/02/25 07:11:20;;;;;;;8.73;2.05;;;;;;;1.66;100.00;99946.41;7395727;19;20396;-50
2022/02/25 07:13:49;;;;;;;5.63;1.77;;;;;;;1.66;100.00;99958.25;7394410;19;20159;-53
2022/02/25 07:16:19;;;;;;;6.25;2.63;;;;;;;1.69;100.00;99972.03;7392669;19;20475;-52
2022/02/25 07:18:49;;;;;;;9.43;2.00;;;;;;;1.63;100.00;99969.09;7396702;19;20157;-50
2022/02/25 07:21:18;;;;;;;8.20;2.00;;;;;;;1.69;100.00;99966.09;7394521;19;20413;-52
2022/02/25 07:23:50;;;;;;;6.23;1.60;;;;;;;1.65;100.00;99980.25;7393313;19;20162;-49
2022/02/25 07:26:20;;;;;;;18.27;2.67;;;;;;;1.69;100.00;99963.53;7392138;19;20373;-49
2022/02/25 07:28:50;;;;;;;18.73;2.30;;;;;;;1.61;100.00;99970.66;7394550;19;20383;-50
2022/02/25 07:31:19;;;;;;;10.67;3.10;;;;;;;1.66;100.00;99961.69;7392316;19;20359;-51
2022/02/25 07:33:49;;;;;;;9.33;1.90;;;;;;;1.65;100.00;99980.25;7393599;19;20408;-52
2022/02/25 07:36:19;;;;;;;4.40;1.87;;;;;;;1.66;100.00;99982.03;7391372;19;20395;-53
2022/02/25 07:38:51;;;;;;;4.60;1.40;;;;;;;1.71;100.00;99990.84;7393921;19;20380;-48
2022/02/25 07:41:24;;;;;;;9.03;2.40;;;;;;;1.71;100.00;100001.00;7391350;19;20394;-51
2022/02/25 07:43:54;;;;;;;10.67;1.93;;;;;;;1.85;100.00;99994.25;7393484;19;20411;-52
2022/02/25 07:46:25;;;;;;;8.80;2.60;;;;;;;1.87;100.00;99991.81;7391397;19;20384;-52
2022/02/25 07:49:15;;;;;;;8.23;1.67;;;;;;;1.98;100.00;100000.13;7393470;19;20376;-49
2022/02/25 07:51:45;;;;;;;6.43;2.17;;;;;;;1.99;100.00;100018.06;7390487;19;20748;-54
2022/02/25 07:54:17;;;;;;;10.63;1.70;;;;;;;2.26;100.00;100020.59;7397251;19;20797;-50
2022/02/25 07:56:47;;;;;;;11.03;1.90;;;;;;;2.45;100.00;100039.56;7391225;19;20417;-50
2022/02/25 07:59:16;;;;;;;6.50;1.93;;;;;;;2.51;100.00;100047.59;7393264;19;20382;-53
2022/02/25 08:01:48;;;;;;;7.47;1.83;;;;;;;2.60;100.00;100069.38;7390628;19;20939;-48
2022/02/25 08:04:18;;;;;;;10.80;2.80;;;;;;;2.51;100.00;100115.50;7393066;19;20430;-52
2022/02/25 08:06:48;;;;;;;11.40;1.97;;;;;;;2.49;100.00;100127.22;7388648;19;20417;-51
2022/02/25 08:09:21;;;;;;;9.50;2.17;;;;;;;2.48;100.00;100117.84;7391124;19;20419;-51
2022/02/25 08:11:51;;;;;;;10.50;2.27;;;;;;;2.43;100.00;100120.97;7391412;19;20419;-53
2022/02/25 08:14:23;;;;;;;13.73;2.80;;;;;;;2.37;100.00;100142.63;7395703;19;20524;-53
2022/02/25 08:16:53;;;;;;;2.30;1.13;;;;;;;2.25;100.00;100132.53;7389738;19;21036;-50
2022/02/25 08:19:22;;;;;;;3.43;1.30;;;;;;;2.16;100.00;100112.44;7392478;19;20398;-52
2022/02/25 08:21:52;;;;;;;8.37;2.33;;;;;;;2.10;100.00;100097.63;7387360;19;20416;-51
2022/02/25 08:24:24;;;;;;;12.48;3.60;;;;;;;2.02;100.00;100094.56;7392041;19;20411;-52
2022/02/25 08:26:54;;;;;;;21.95;3.35;;;;;;;2.00;100.00;100063.06;7390901;19;20187;-52
2022/02/25 08:29:23;;;;;;;9.33;2.93;;;;;;;1.95;100.00;100072.06;7392144;19;20598;-52
2022/02/25 08:31:54;;;;;;;9.60;2.47;;;;;;;1.98;100.00;100054.47;7389295;19;20435;-52
2022/02/25 08:34:23;;;;;;;6.90;2.60;;;;;;;1.99;100.00;100046.03;7391795;19;20541;-53
2022/02/25 08:36:55;;;;;;;9.10;2.37;;;;;;;1.93;100.00;100050.72;7387693;19;20415;-50
2022/02/25 08:39:27;;;;;;;7.57;2.33;;;;;;;1.93;100.00;100053.28;7394452;19;20819;-50
2022/02/25 08:41:57;;;;;;;5.67;2.00;;;;;;;1.94;100.00;100047.41;7390048;19;20598;-49
2022/02/25 08:44:27;;;;;;;12.20;2.53;;;;;;;1.88;100.00;100049.53;7395295;19;20943;-50
2022/02/25 08:46:57;;;;;;;8.13;2.83;;;;;;;1.81;100.00;100044.84;7388907;19;20434;-52
2022/02/25 08:49:26;;;;;;;9.83;3.07;;;;;;;1.74;100.00;100036.81;7391296;19;20131;-52
2022/02/25 08:51:56;;;;;;;11.10;3.50;;;;;;;1.77;100.00;100031.03;7386877;19;20506;-50
2022/02/25 08:54:33;;;;;;;7.93;2.53;;;;;;;1.74;100.00;100034.25;7391224;19;20481;-51
2022/02/25 08:57:03;;;;;;;5.65;2.85;;;;;;;1.75;100.00;100022.44;7388478;19;20414;-49
2022/02/25 08:59:32;;;;;;;7.03;2.58;;;;;;;1.79;100.00;100018.44;7391449;19;20128;-51
2022/02/25 09:02:02;;;;;;;4.43;1.90;;;;;;;1.86;100.00;100001.09;7388342;19;20193;-51
2022/02/25 09:04:32;;;;;;;12.07;2.93;;;;;;;1.86;100.00;100011.28;7390894;19;20404;-51
2022/02/25 09:07:01;;;;;;;14.23;4.50;;;;;;;1.92;100.00;99999.75;7384450;19;20422;-50
2022/02/25 09:09:33;;;;;;;13.23;4.20;;;;;;;1.92;100.00;100005.72;7391114;19;20471;-49
2022/02/25 09:12:03;;;;;;;5.60;2.57;;;;;;;1.88;100.00;100006.28;7384823;19;20557;-52
2022/02/25 09:14:32;;;;;;;13.93;4.18;;;;;;;1.86;100.00;100002.78;7392912;19;20427;-50
2022/02/25 09:17:02;;;;;;;10.53;5.77;;;;;;;1.87;100.00;99996.91;7388871;19;20258;-52
2022/02/25 09:19:32;;;;;;;9.90;4.67;;;;;;;1.94;100.00;99998.19;7392100;19;20397;-51
2022/02/25 09:22:02;;;;;;;11.33;4.33;;;;;;;1.99;100.00;99979.88;7390539;19;20439;-53
2022/02/25 09:24:35;;;;;;;20.87;6.17;;;;;;;2.07;100.00;99971.84;7393943;19;20427;-50
2022/02/25 09:27:05;;;;;;;12.20;4.17;;;;;;;2.20;100.00;99989.66;7389772;19;20758;-50
2022/02/25 09:29:35;;;;;;;20.77;7.80;;;;;;;2.33;100.00;99993.88;7391630;19;20400;-51
2022/02/25 09:32:07;;;;;;;26.73;6.17;;;;;;;2.56;100.00;99997.84;7387476;19;20530;-51
2022/02/25 09:34:37;;;;;;;14.33;5.53;;;;;;;2.66;100.00;99993.31;7389763;19;20748;-51
2022/02/25 09:37:07;;;;;;;13.67;4.13;;;;;;;2.70;100.00;100013.97;7388110;19;20411;-50
2022/02/25 09:39:39;;;;;;;16.40;6.80;;;;;;;2.63;100.00;100033.88;7391928;19;20400;-50
2022/02/25 09:42:09;;;;;;;22.40;6.07;;;;;;;2.64;100.00;100040.72;7382434;19;20407;-51
2022/02/25 09:44:39;;;;;;;12.40;5.50;;;;;;;2.66;100.00;100046.81;7389660;19;20394;-51
2022/02/25 09:47:09;;;;;;;20.33;5.40;;;;;;;2.54;100.00;100049.47;7382747;19;20941;-49
2022/02/25 09:49:38;;;;;;;14.33;6.47;;;;;;;2.62;100.00;100072.88;7396958;19;20388;-54
2022/02/25 09:52:12;;;;;;;20.40;6.00;;;;;;;2.61;100.00;100053.28;7394999;19;20437;-50
2022/02/25 09:54:44;;;;;;;28.23;7.73;;;;;;;2.67;100.00;100061.31;7396348;19;20414;-55
2022/02/25 09:57:14;;;;;;;13.97;3.50;;;;;;;2.67;100.00;100066.41;7387834;19;20419;-50
2022/02/25 09:59:44;;;;;;;21.37;5.70;;;;;;;2.71;100.00;100053.06;7401364;19;20570;-50
2022/02/25 10:02:14;;;;;;;25.43;8.13;;;;;;;2.78;100.00;100065.38;7393705;19;20402;-54
2022/02/25 10:04:44;;;;;;;12.40;4.47;;;;;;;2.74;100.00;100063.44;7398950;19;20427;-50
2022/02/25 10:07:27;;;;;;;28.70;6.40;;;;;;;2.83;100.00;100070.78;7394795;19;20413;-52
2022/02/25 10:10:01;;;;;;;23.63;5.77;;;;;;;2.86;100.00;100082.84;7398213;19;20768;-52
2022/02/25 10:12:30;;;;;;;8.97;3.37;;;;;;;2.71;100.00;100086.19;7394339;19;20427;-49
2022/02/25 10:15:00;;;;;;;10.83;3.63;;;;;;;2.60;100.00;100069.38;7395306;19;20422;-50
2022/02/25 10:17:30;;;;;;;9.53;3.03;;;;;;;2.46;100.00;100076.97;7396649;19;20447;-51
2022/02/25 10:20:03;;;;;;;18.37;5.10;;;;;;;2.24;100.00;100059.47;7396571;19;20398;-51
2022/02/25 10:22:52;;;;;;;8.90;2.00;;;;;;;2.07;100.00;100036.38;7393600;19;20416;-54
2022/02/25 10:25:25;;;;;;;10.27;3.30;;;;;;;1.85;100.00;100018.84;7394324;19;20926;-54
2022/02/25 10:27:55;;;;;;;9.33;3.87;;;;;;;1.53;100.00;99976.91;7393003;19;20421;-55
2022/02/25 10:30:25;;;;;;;9.48;2.80;;;;;;;1.42;100.00;99936.41;7396818;19;20390;-52
2022/02/25 10:32:56;;;;;;;11.60;3.00;;;;;;;1.40;100.00;99937.97;7394238;19;20533;-52
2022/02/25 10:35:32;;;;;;;6.35;3.20;;;;;;;1.38;100.00;99914.09;7398480;19;20613;-56
2022/02/25 10:38:04;;;;;;;13.23;5.10;;;;;;;1.39;100.00;99899.72;7392131;19;20182;-51
2022/02/25 10:40:38;;;;;;;10.13;3.50;;;;;;;1.36;100.00;99895.34;7396673;19;20127;-51
2022/02/25 10:43:13;;;;;;;16.03;4.37;;;;;;;1.35;100.00;99873.25;7393491;19;20427;-53
2022/02/25 10:45:44;;;;;;;7.65;3.17;;;;;;;1.40;100.00;99866.78;7396012;19;20387;-53
2022/02/25 10:48:15;;;;;;;16.33;5.75;;;;;;;1.53;100.00;99843.00;7390014;19;20213;-53
2022/02/25 10:50:47;;;;;;;8.52;3.25;;;;;;;1.53;100.00;99827.75;7396074;19;20137;-51
2022/02/25 10:53:18;;;;;;;9.70;2.95;;;;;;;1.32;100.00;99809.47;7391795;19;20682;-52
2022/02/25 10:55:52;;;;;;;10.10;3.35;;;;;;;1.45;100.00;99799.31;7395826;19;20127;-55
2022/02/25 10:58:22;;;;;;;13.85;4.20;;;;;;;1.50;100.00;99797.06;7392216;19;20185;-54
2022/02/25 11:01:13;;;;;;;8.48;2.60;;;;;;;1.52;100.00;99794.59;7392359;19;20600;-53
2022/02/25 11:03:44;;;;;;;16.08;3.85;;;;;;;1.70;100.00;99793.19;7393863;19;21013;-54
2022/02/25 11:06:14;;;;;;;13.97;4.20;;;;;;;1.86;100.00;99782.31;7392018;19;20134;-52
2022/02/25 11:08:43;;;;;;;9.02;1.95;;;;;;;1.92;100.00;99771.66;7394330;19;20487;-56
2022/02/25 11:11:16;;;;;;;6.30;2.35;;;;;;;1.83;100.00;99771.06;7392702;19;20131;-52
2022/02/25 11:13:46;;;;;;;5.37;2.50;;;;;;;1.84;100.00;99775.41;7393507;19;20174;-54
2022/02/25 11:16:16;;;;;;;14.43;3.73;;;;;;;1.88;100.00;99773.13;7393218;19;20384;-50
2022/02/25 11:18:46;;;;;;;8.10;2.72;;;;;;;1.89;100.00;99781.63;7397135;19;20395;-51
2022/02/25 11:21:16;;;;;;;1.93;1.37;;;;;;;1.95;100.00;99787.09;7394018;19;20127;-51
2022/02/25 11:23:46;;;;;;;4.60;1.97;;;;;;;2.13;100.00;99773.72;7393405;19;20418;-54
2022/02/25 11:26:21;;;;;;;9.63;2.40;;;;;;;2.23;100.00;99777.69;7389144;19;20387;-52
2022/02/25 11:28:50;;;;;;;6.80;3.27;;;;;;;2.21;100.00;99769.09;7394242;19;20386;-49
2022/02/25 11:31:25;;;;;;;7.53;2.42;;;;;;;2.22;100.00;99771.75;7393418;19;20386;-55
2022/02/25 11:33:56;;;;;;;4.93;2.07;;;;;;;2.35;100.00;99757.19;7393467;19;20159;-52
2022/02/25 11:36:44;;;;;;;2.73;1.73;;;;;;;2.41;100.00;99753.31;7391812;19;20390;-49
2022/02/25 11:39:24;;;;;;;14.80;2.40;;;;;;;2.48;100.00;99752.03;7393895;19;20384;-52
2022/02/25 11:41:57;;;;;;;17.37;3.37;;;;;;;2.51;100.00;99746.22;7391271;19;20736;-49
2022/02/25 11:44:27;;;;;;;7.13;2.60;;;;;;;2.61;100.00;99740.84;7393013;19;20432;-52
2022/02/25 11:46:58;;;;;;;6.53;1.97;;;;;;;2.76;100.00;99763.78;7384238;19;20494;-51
2022/02/25 11:49:30;;;;;;;5.53;1.50;;;;;;;3.01;100.00;99765.19;7397584;19;20396;-56
2022/02/25 11:52:02;;;;;;;13.80;2.23;;;;;;;3.00;100.00;99762.53;7390350;19;20419;-50
2022/02/25 11:54:41;;;;;;;9.87;2.00;;;;;;;2.90;100.00;99768.78;7392480;19;20436;-55